Latest Weather Observations for Lake Macquarie - Cooranbong

IDN60901

Issued at 2:51 pm EDT Friday 12 February 2016 (issued every 10 minutes, with the page automatically refreshed every 10 minutes)

About weather observations | Map of Sydney area stations | Latest observations for Sydney area | Other Formats
Station Details ID: 061412 Name: LAKE MACQUARIE AWS Lat: -33.09 Lon: 151.46 Height: 6.0 m
Data from the previous 72 hours. | See also: Recent months at Lake Macquarie - Cooranbong
Date/Time
EDT
Tmp

°C
App
Tmp
°C
Dew
Point
°C
Rel
Hum
%
Delta-T

°C
Wind Press
QNH
hPa
Press
MSL
hPa
Rain
since
9 am
mm
Dir
 
Spd
km/h
Gust
km/h
Spd
kts
Gust
kts
12/02:30pm 28.1 28.8 17.9 54 6.5 E 11 15 6 8 1015.0 1015.0 0.0
12/02:00pm 28.0 28.9 17.5 52 6.6 ESE 9 17 5 9 1015.3 1015.3 0.0
12/01:30pm 27.9 28.5 16.8 50 6.9 E 9 15 5 8 1015.6 1015.6 0.0
12/01:00pm 27.4 27.6 16.7 52 6.6 ESE 11 19 6 10 1015.8 1015.8 0.0
12/12:30pm 27.7 28.6 17.5 53 6.4 ESE 9 19 5 10 1016.3 1016.3 0.0
12/12:00pm 27.7 29.2 17.5 53 6.4 NE 6 17 3 9 1016.4 1016.4 0.0
12/11:30am 27.8 29.4 17.9 54 6.3 ENE 6 11 3 6 1016.7 1016.7 0.0
12/11:00am 26.4 27.7 17.5 58 5.6 ESE 7 11 4 6 1016.9 1016.9 0.0
12/10:30am 26.6 28.7 18.2 60 5.3 ENE 4 7 2 4 1017.0 1017.0 0.0
12/10:00am 25.7 27.8 18.1 63 4.8 ENE 4 7 2 4 1017.1 1017.1 0.0
12/09:30am 24.7 27.3 18.4 68 4.0 ENE 2 6 1 3 1017.1 1017.1 0.0
12/09:00am 22.9 25.8 18.2 75 2.9 CALM 0 0 0 0 1017.1 1017.1 0.0
12/08:30am 21.5 25.1 19.8 90 1.1 CALM 0 0 0 0 1016.8 1016.8 0.0
12/08:00am 20.0 23.5 19.5 97 0.3 CALM 0 0 0 0 1016.6 1016.6 0.0
12/07:30am 18.7 21.7 18.4 98 0.2 CALM 0 0 0 0 1016.2 1016.2 0.0
12/07:00am 17.3 19.6 16.8 97 0.3 CALM 0 0 0 0 1016.0 1016.0 0.0
12/06:30am 17.4 19.8 16.9 97 0.3 CALM 0 0 0 0 1015.7 1015.7 0.0
12/06:00am 17.6 20.0 17.1 97 0.3 CALM 0 0 0 0 1015.3 1015.3 0.0
12/05:30am 17.6 20.0 17.0 96 0.4 CALM 0 0 0 0 1015.1 1015.1 0.0
12/05:00am 17.9 20.4 17.3 96 0.4 CALM 0 0 0 0 1014.9 1014.9 0.0
12/04:30am 18.2 20.8 17.6 96 0.4 CALM 0 0 0 0 1015.0 1015.0 0.0
12/04:00am 18.2 20.8 17.6 96 0.4 CALM 0 0 0 0 1014.8 1014.8 0.0
12/03:30am 18.6 21.3 17.8 95 0.5 CALM 0 0 0 0 1015.1 1015.1 0.0
12/03:00am 18.8 21.6 18.0 95 0.5 CALM 0 0 0 0 1015.1 1015.1 0.0
12/02:30am 19.0 21.9 18.2 95 0.5 CALM 0 0 0 0 1015.2 1015.2 0.0
12/02:00am 19.0 21.8 18.0 94 0.6 CALM 0 0 0 0 1015.0 1015.0 0.0
12/01:30am 19.8 22.9 18.6 93 0.7 CALM 0 0 0 0 1015.2 1015.2 0.0
12/01:00am 19.7 22.7 18.4 92 0.8 CALM 0 0 0 0 1015.7 1015.7 0.0
12/12:30am 20.3 22.8 19.0 92 0.8 NW 4 7 2 4 1015.9 1015.9 0.0
12/12:00am 20.7 24.1 19.4 92 0.8 CALM 0 0 0 0 1015.6 1015.6 0.0
 
Date/Time
EDT
Tmp

°C
App
Tmp
°C
Dew
Point
°C
Rel
Hum
%
Delta-T

°C
Wind Press
QNH
hPa
Press
MSL
hPa
Rain
since
9 am
mm
Dir
 
Spd
km/h
Gust
km/h
Spd
kts
Gust
kts
11/11:30pm 21.0 24.3 19.1 89 1.2 CALM 0 0 0 0 1015.8 1015.8 0.0
11/11:00pm 21.3 24.6 19.0 87 1.4 CALM 0 0 0 0 1016.2 1016.2 0.0
11/10:30pm 22.1 25.4 19.1 83 1.9 CALM 0 0 0 0 1016.3 1016.3 0.0
11/10:00pm 22.4 25.3 19.0 81 2.1 NNE 2 4 1 2 1016.1 1016.1 0.0
11/09:30pm 22.8 25.4 19.2 80 2.3 NNE 4 6 2 3 1015.8 1015.8 0.0
11/09:00pm 23.6 26.1 19.1 76 2.9 NE 4 6 2 3 1015.5 1015.5 0.0
11/08:30pm 24.1 26.7 19.2 74 3.1 ENE 4 7 2 4 1015.4 1015.4 0.0
11/08:00pm 24.3 26.7 18.9 72 3.4 E 4 11 2 6 1015.1 1015.1 0.0
11/07:30pm 24.6 26.6 19.2 72 3.5 E 7 15 4 8 1014.7 1014.7 0.0
11/07:00pm 24.7 26.7 19.1 71 3.6 E 7 13 4 7 1014.1 1014.1 0.0
11/06:30pm 24.9 26.2 18.4 67 4.1 E 9 17 5 9 1013.6 1013.6 0.0
11/06:00pm 25.7 26.3 18.6 65 4.5 E 13 20 7 11 1013.3 1013.3 0.0
11/05:30pm 26.0 26.9 19.2 66 4.4 ESE 13 22 7 12 1013.4 1013.4 0.0
11/05:00pm 26.4 26.7 18.8 63 4.9 E 15 22 8 12 1013.4 1013.4 0.0
11/04:30pm 26.3 26.4 18.4 61 5.0 E 15 24 8 13 1013.5 1013.5 0.0
11/04:00pm 26.6 26.9 18.7 62 5.0 ESE 15 26 8 14 1013.7 1013.7 0.0
11/03:30pm 26.8 26.4 18.1 59 5.5 ESE 17 22 9 12 1013.9 1013.9 0.0
11/03:00pm 27.7 29.1 18.7 58 5.8 E 9 22 5 12 1014.1 1014.1 0.0
11/02:30pm 27.1 27.5 17.3 55 6.1 NE 11 24 6 13 1014.4 1014.4 0.0
11/02:00pm 26.8 27.2 17.3 56 5.9 E 11 19 6 10 1014.6 1014.6 0.0
11/01:30pm 26.6 26.7 17.4 57 5.8 E 13 20 7 11 1014.7 1014.7 0.0
11/01:00pm 27.0 27.7 18.8 60 5.3 E 13 22 7 12 1014.8 1014.8 0.0
11/12:30pm 26.9 27.6 17.9 57 5.7 E 11 19 6 10 1015.0 1015.0 0.0
11/12:00pm 26.6 27.7 17.1 56 5.9 ESE 7 13 4 7 1015.1 1015.1 0.0
11/11:30am 26.2 27.5 17.0 57 5.7 ESE 6 15 3 8 1015.2 1015.2 0.0
11/11:00am 26.1 27.4 17.2 58 5.5 ESE 6 13 3 7 1015.3 1015.3 0.0
11/10:30am 25.1 26.1 16.8 60 5.1 SSW 7 9 4 5 1015.4 1015.4 0.0
11/10:00am 24.6 26.0 17.3 64 4.5 E 6 9 3 5 1015.5 1015.5 0.0
11/09:30am 23.8 26.5 18.7 73 3.2 WSW 2 4 1 2 1015.5 1015.5 0.0
11/09:00am 22.0 24.3 17.8 77 2.6 SSW 2 4 1 2 1015.3 1015.3 0.0
11/08:30am 19.7 21.9 17.5 87 1.3 WNW 2 6 1 3 1015.3 1015.3 0.0
11/08:00am 18.3 20.8 17.3 94 0.6 CALM 0 0 0 0 1015.1 1015.1 0.0
11/07:30am 15.9 17.7 15.4 97 0.3 CALM 0 0 0 0 1014.8 1014.8 0.0
11/07:00am 15.1 16.6 14.6 97 0.3 CALM 0 0 0 0 1014.4 1014.4 0.0
11/06:30am 14.8 16.2 14.3 97 0.3 CALM 0 0 0 0 1014.0 1014.0 0.0
11/06:00am 14.8 16.1 14.2 96 0.3 CALM 0 0 0 0 1013.7 1013.7 0.0
11/05:30am 15.1 16.5 14.5 96 0.3 CALM 0 0 0 0 1013.5 1013.5 0.0
11/05:00am 15.2 16.7 14.6 96 0.3 CALM 0 0 0 0 1013.4 1013.4 0.0
11/04:30am 15.3 16.8 14.7 96 0.3 CALM 0 0 0 0 1013.3 1013.3 0.0
11/04:00am 15.7 17.4 15.1 96 0.3 CALM 0 0 0 0 1013.3 1013.3 0.0
11/03:30am 15.8 17.4 15.0 95 0.5 CALM 0 0 0 0 1013.3 1013.3 0.0
11/03:00am 16.1 17.8 15.3 95 0.5 CALM 0 0 0 0 1013.4 1013.4 0.0
11/02:30am 16.2 18.0 15.4 95 0.5 CALM 0 0 0 0 1013.4 1013.4 0.0
11/02:00am 16.4 18.2 15.6 95 0.5 CALM 0 0 0 0 1013.7 1013.7 0.0
11/01:30am 16.7 18.7 15.9 95 0.5 CALM 0 0 0 0 1013.7 1013.7 0.0
11/01:00am 16.9 18.9 15.9 94 0.6 CALM 0 0 0 0 1014.1 1014.1 0.0
11/12:30am 17.3 19.4 16.2 93 0.7 CALM 0 0 0 0 1014.2 1014.2 0.0
11/12:00am 17.4 19.4 16.1 92 0.8 CALM 0 0 0 0 1014.2 1014.2 0.0
 
Date/Time
EDT
Tmp

°C
App
Tmp
°C
Dew
Point
°C
Rel
Hum
%
Delta-T

°C
Wind Press
QNH
hPa
Press
MSL
hPa
Rain
since
9 am
mm
Dir
 
Spd
km/h
Gust
km/h
Spd
kts
Gust
kts
10/11:30pm 17.5 19.6 16.2 92 0.8 CALM 0 0 0 0 1014.2 1014.2 0.0
10/11:00pm 17.8 19.9 16.3 91 0.9 CALM 0 0 0 0 1014.4 1014.4 0.0
10/10:30pm 18.3 20.4 16.3 88 1.2 CALM 0 0 0 0 1014.6 1014.6 0.0
10/10:00pm 18.6 20.7 16.2 86 1.4 CALM 0 0 0 0 1014.6 1014.6 0.0
10/09:30pm 19.7 21.8 16.3 81 2.0 CALM 0 0 0 0 1014.4 1014.4 0.0
10/09:00pm 21.4 23.3 15.7 70 3.4 CALM 0 2 0 1 1014.1 1014.1 0.0
10/08:30pm 22.4 23.5 15.7 66 4.0 ENE 4 7 2 4 1013.9 1013.9 0.0
10/08:00pm 22.9 24.3 15.5 63 4.4 NE 2 6 1 3 1013.7 1013.7 0.0
10/07:30pm 23.8 24.8 15.3 59 5.1 E 4 9 2 5 1013.4 1013.4 0.0
10/07:00pm 24.8 25.4 15.7 57 5.5 ENE 7 13 4 7 1013.1 1013.1 0.0
10/06:30pm 25.4 25.8 16.3 57 5.6 ENE 9 20 5 11 1012.7 1012.7 0.0
10/06:00pm 25.6 25.6 17.3 60 5.2 E 13 24 7 13 1012.7 1012.7 0.0
10/05:30pm 26.0 26.2 17.6 60 5.3 E 13 24 7 13 1012.6 1012.6 0.0
10/05:00pm 26.0 25.2 17.1 58 5.5 E 17 28 9 15 1012.5 1012.5 0.0
10/04:30pm 26.3 26.6 17.9 60 5.3 E 13 20 7 11 1012.7 1012.7 0.0
10/04:00pm 26.3 26.0 18.2 61 5.1 E 17 30 9 16 1012.8 1012.8 0.0
10/03:30pm 26.5 26.5 18.1 60 5.3 E 15 26 8 14 1013.0 1013.0 0.0
10/03:00pm 26.9 27.1 17.7 57 5.8 E 13 24 7 13 1013.4 1013.4 0.0
10/02:30pm 26.7 26.5 16.6 54 6.3 E 13 20 7 11 1013.7 1013.7 0.0
10/02:00pm 27.4 28.3 18.4 58 5.7 ESE 11 17 6 9 1014.2 1014.2 0.0
10/01:30pm 26.8 27.2 16.4 53 6.4 E 9 19 5 10 1014.6 1014.6 0.0
10/01:00pm 26.9 27.7 17.4 56 6.0 E 9 19 5 10 1014.8 1014.8 0.0
10/12:30pm 26.0 26.3 16.0 54 6.1 E 9 20 5 11 1015.3 1015.3 0.0
10/12:00pm 26.1 25.9 14.6 49 6.9 E 9 15 5 8 1015.7 1015.7 0.0
10/11:30am 26.0 26.7 16.0 54 6.1 N 7 11 4 6 1016.0 1016.0 0.0
10/11:00am 25.2 26.0 14.9 52 6.2 NE 4 9 2 5 1016.2 1016.2 0.0
10/10:30am 25.3 26.4 15.6 55 5.9 ENE 4 6 2 3 1016.6 1016.6 0.0
10/10:00am 24.7 25.2 15.6 57 5.5 NNE 7 11 4 6 1016.7 1016.7 0.0
10/09:30am 23.8 24.6 15.8 61 4.8 NNE 6 7 3 4 1016.7 1016.7 0.0
10/09:00am 23.0 24.7 17.2 70 3.6 N 4 7 2 4 1016.7 1016.7 -
10/08:30am 21.3 24.2 18.1 82 2.0 CALM 0 0 0 0 1016.8 1016.8 -
10/08:00am 19.4 22.3 18.1 92 0.8 CALM 0 0 0 0 1016.7 1016.7 -
10/07:30am 18.2 20.9 17.7 97 0.3 CALM 0 0 0 0 1016.7 1016.7 -
10/07:00am 16.4 18.4 15.9 97 0.3 CALM 0 0 0 0 1016.6 1016.6 -
10/06:30am 16.5 18.5 16.0 97 0.3 CALM 0 0 0 0 1016.5 1016.5 -
10/06:00am 17.1 19.3 16.6 97 0.3 CALM 0 0 0 0 1016.3 1016.3 -
10/05:30am 17.2 19.5 16.7 97 0.3 CALM 0 0 0 0 1016.2 1016.2 -
10/05:00am 16.7 18.7 16.1 96 0.4 CALM 0 0 0 0 1016.1 1016.1 -
10/04:30am 16.6 18.6 16.0 96 0.4 CALM 0 0 0 0 1016.0 1016.0 -
10/04:00am 16.8 18.9 16.2 96 0.4 CALM 0 0 0 0 1016.1 1016.1 -
10/03:30am 16.8 18.8 16.0 95 0.5 CALM 0 0 0 0 1016.3 1016.3 -
10/03:00am 17.5 19.7 16.5 94 0.6 CALM 0 0 0 0 1016.8 1016.8 0.0
10/02:30am 17.8 20.2 17.0 95 0.5 CALM 0 0 0 0 1017.0 1017.0 -
10/02:00am 18.2 20.7 17.2 94 0.6 CALM 0 0 0 0 1017.3 1017.3 -
10/01:30am 18.6 21.2 17.6 94 0.6 CALM 0 0 0 0 1017.5 1017.5 -
10/01:00am 18.7 21.3 17.5 93 0.7 CALM 0 0 0 0 1017.8 1017.8 -
10/12:30am 18.9 21.7 17.9 94 0.6 CALM 0 0 0 0 1018.2 1018.2 -
10/12:00am 18.9 21.6 17.7 93 0.7 CALM 0 0 0 0 1018.5 1018.5 -
 
Date/Time
EDT
Tmp

°C
App
Tmp
°C
Dew
Point
°C
Rel
Hum
%
Delta-T

°C
Wind Press
QNH
hPa
Press
MSL
hPa
Rain
since
9 am
mm
Dir
 
Spd
km/h
Gust
km/h
Spd
kts
Gust
kts
09/11:30pm 19.2 22.0 17.9 92 0.8 CALM 0 0 0 0 1018.7 1018.7 -
09/11:00pm 19.0 21.6 17.5 91 0.9 CALM 0 0 0 0 1019.0 1019.0 -
09/10:30pm 19.6 22.5 18.1 91 0.9 CALM 0 0 0 0 1019.2 1019.2 -
09/10:00pm 19.6 22.5 18.3 92 0.8 CALM 0 0 0 0 1019.4 1019.4 -
09/09:30pm 19.8 22.6 17.9 89 1.2 CALM 0 0 0 0 1019.2 1019.2 -
09/09:00pm 20.7 23.4 17.7 83 1.8 CALM 0 0 0 0 1019.1 1019.1 0.0
09/08:30pm 21.2 23.7 17.2 78 2.4 CALM 0 0 0 0 1019.1 1019.1 -
09/08:00pm 22.4 25.1 17.8 75 2.9 CALM 0 0 0 0 1019.0 1019.0 -
09/07:30pm 23.6 25.7 17.3 67 3.9 SE 2 4 1 2 1018.7 1018.7 -
09/07:00pm 24.1 25.2 17.1 65 4.3 ESE 7 11 4 6 1018.5 1018.5 -
09/06:30pm 24.5 25.6 17.0 63 4.6 SSE 7 19 4 10 1018.4 1018.4 -
09/06:00pm 25.5 27.0 17.7 62 4.9 SSE 6 13 3 7 1018.3 1018.3 -
09/05:30pm 25.4 26.3 16.5 58 5.5 SSE 7 17 4 9 1018.3 1018.3 -
09/05:00pm 25.4 25.2 14.8 52 6.3 SSE 9 19 5 10 1018.6 1018.6 -
09/04:30pm 25.8 25.2 14.6 50 6.7 SE 11 24 6 13 1018.6 1018.6 -
09/04:00pm 25.3 24.2 14.4 50 6.5 SE 13 24 7 13 1018.8 1018.8 -
09/03:30pm 25.8 26.1 16.1 55 5.9 SSE 9 24 5 13 1019.0 1019.0 -
09/03:00pm 26.2 26.9 17.0 57 5.7 SE 9 24 5 13 1019.4 1019.4 0.0

Latest Capital City Observations: Canberra | Sydney | Melbourne | Brisbane | Adelaide | Perth | Hobart | Darwin

Other Formats:

Comma delimited format used in spreadsheet applications
http://www.bom.gov.au/fwo/IDN60901/IDN60901.95767.axf

JavaScript Object Notation format (JSON) in row-major order
http://www.bom.gov.au/fwo/IDN60901/IDN60901.95767.json